Armstrong Creek, Wisconsin
Current Conditions -  °F | °C
As of 2:07 AM on Thursday 29 Jan 2015 (Local Time) from KIMT Reporting Station
Haze Haze  
Wind Chill: -3°   Ceiling: 600
Heat Index: -3°   Visibility: 1.7mi
Dew Point: -4°   Wind: 0mph
Humidity: 92%   Direction: NA
Pressure: 29.77"   Gusts: NA
Location:  45.66°N, 88.45°W
Report Text: KIMT 290807Z AUTO 00000KT 1 3/4SM BR OVC006 M03/M04 A2977 RMK AO2 CIG 003V009 T10281039
Loading
Personal Weather Stations






























Interactive Weather Map New forecast layout! Learn more

10-Day Weather Forecast

Advertisements
Track Severe Weather on mobile